Погода Сиаргаона неделю

Куба-Хачмасский район, Азербайджан

24 - 30 июня
  • 24июня
    Сегодня
    +23°
    +30°
    Практически безоблачно
    ВремяПогодаТемператураВлажностьДавлениеВетер, м/сВероятность осадков
    01:00Ясно и безоблачно+22°C83 %757 мм1.4 м/с2 %
    04:00Ясно и безоблачно+21°C83 %756 мм1.5 м/с2 %
    07:00Ясно и безоблачно+23°C76 %756 мм0.8 м/с2 %
    10:00Ясно и безоблачно+27°C68 %756 мм1.8 м/с2 %
    13:00Практически безоблачно+29°C59 %755 мм1.8 м/с7 %
    16:00Практически безоблачно+29°C62 %754 мм3.2 м/с15 %
    19:00Практически безоблачно+28°C66 %753 мм1.3 м/с10 %
    22:00Ясно и безоблачно+26°C75 %755 мм1.3 м/с2 %
  • 25июня
    Вторник
    +23°
    +34°
    Практически безоблачно
    ВремяПогодаТемператураВлажностьДавлениеВетер, м/сВероятность осадков
    01:00Ясно и безоблачно+24°C84 %754 мм0.9 м/с2 %
    04:00Ясно и безоблачно+23°C84 %754 мм1.1 м/с2 %
    07:00Ясно и безоблачно+25°C75 %753 мм1.2 м/с2 %
    10:00Ясно и безоблачно+30°C56 %753 мм1.9 м/с2 %
    13:00Практически безоблачно+33°C39 %752 мм3.1 м/с2 %
    16:00Практически безоблачно+33°C36 %751 мм2.8 м/с2 %
    19:00Практически безоблачно+30°C48 %751 мм1.3 м/с2 %
    22:00Небольшая облачность+26°C72 %752 мм3.8 м/с2 %
  • 26июня
    Среда
    +17°
    +28°
    Пасмурно, небольшой дождь
    ВремяПогодаТемператураВлажностьДавлениеВетер, м/сВероятность осадков
    01:00Ясно и безоблачно+25°C60 %752 мм4.4 м/с2 %
    04:00Небольшая облачность+24°C70 %752 мм4.4 м/с2 %
    07:00Облачно с прояснениями+24°C70 %753 мм4.1 м/с3 %
    10:00Небольшая облачность+27°C62 %753 мм5.0 м/с17 %
    13:00Пасмурно, небольшой дождь+25°C75 %754 мм5.3 м/с54 %
    16:00Пасмурно, ливень+21°C84 %754 мм5.4 м/с71 %
    19:00Пасмурно, дождь+19°C91 %756 мм6.6 м/с86 %
    22:00Небольшая облачность, ливень+19°C70 %757 мм5.9 м/с85 %
  • 27июня
    Четверг
    +17°
    +26°
    Облачно с прояснениями
    ВремяПогодаТемператураВлажностьДавлениеВетер, м/сВероятность осадков
    01:00Пасмурно, дождь+18°C72 %757 мм4.0 м/с64 %
    04:00Ясно и безоблачно+18°C59 %757 мм3.8 м/с39 %
    07:00Небольшая облачность+20°C53 %757 мм2.7 м/с8 %
    10:00Практически безоблачно+24°C39 %758 мм2.9 м/с4 %
    13:00Облачно с прояснениями+25°C39 %757 мм2.9 м/с4 %
    16:00Небольшая облачность+25°C44 %757 мм4.6 м/с11 %
    19:00Практически безоблачно+24°C44 %757 мм4.2 м/с9 %
    22:00Ясно и безоблачно+22°C58 %757 мм2.9 м/с2 %
  • 28июня
    Пятница
    +20°
    +29°
    Ясно и безоблачно
    ВремяПогодаТемператураВлажностьДавлениеВетер, м/сВероятность осадков
    01:00Ясно и безоблачно+19°C70 %757 мм2.1 м/с2 %
    04:00Ясно и безоблачно+18°C76 %756 мм2.1 м/с2 %
    07:00Ясно и безоблачно+20°C70 %756 мм1.3 м/с2 %
    10:00Ясно и безоблачно+25°C49 %755 мм1.9 м/с2 %
    13:00Ясно и безоблачно+28°C40 %754 мм3.1 м/с3 %
    16:00Практически безоблачно+27°C53 %753 мм4.3 м/с6 %
    19:00Облачно с прояснениями+25°C63 %754 мм1.2 м/с10 %
    22:00Пасмурно, сплошная облачность+23°C78 %755 мм1.2 м/с5 %
Мы используем cookies
Соглашаюсь